Impacts TAF Board
For situational awareness. Not to be used for flight planning purposes.
IDs:

KBUF - Buffalo-Niagara Intl, NY, US

Issued at 1508 UTC 03 Dec 2021
Updated at 1541 UTC 03 Dec 2021
Potential Impact None Slight Moderate High
Time<<04/04Z 04/05Z 04/06Z 04/07Z 04/08Z 04/09Z 04/10Z 04/11Z 04/12Z 04/13Z 04/14Z 04/15Z 04/16Z>>
Type PRVL PRVL PRVL PRVL PRVL PRVL PRVL PRVL
VIS >6 >6 >6 >6 >6 >6 >6 >6
CIG 40 40 30 30 30 30 30 15
Cover BKN BKN BKN BKN BKN BKN BKN OVC
FltCat VFR VFR MVFR MVFR MVFR MVFR MVFR MVFR
WX -- -- -- -- -- -- -- --
WDir 260 260 230 230 230 230 230 250
WSpd 8 8 5 5 5 5 5 9
WGst -- -- -- -- -- -- -- --
WSHgt -- -- -- -- -- -- -- --
WSDir -- -- -- -- -- -- -- --
WSSpd -- -- -- -- -- -- -- --
Raw TAF
KBUF 031508Z 0315/0412 31013G17KT P6SM SCT025 BKN035
  FM032100 26008KT P6SM BKN040
  FM040600 23005KT P6SM BKN030
  FM041100 25009KT P6SM OVC015


METAR Board
Radar Display
Forecast Discussion
For situational awareness. Not to be used for flight planning purposes.